createdAt,value
2023-04-13T00:01:22.474Z,6.25
2023-04-13T00:03:50.940Z,4.25
2023-04-13T00:06:20.193Z,5.00
2023-04-13T00:08:47.763Z,6.75
2023-04-13T00:11:16.415Z,4.00
2023-04-13T00:13:47.381Z,5.00
2023-04-13T00:16:22.448Z,5.00
2023-04-13T00:18:52.576Z,6.00
2023-04-13T00:21:20.759Z,4.00
2023-04-13T00:23:48.183Z,5.00
2023-04-13T00:26:15.795Z,4.50
2023-04-13T00:28:44.915Z,8.00
2023-04-13T00:31:12.493Z,5.00
2023-04-13T00:33:41.712Z,5.50
2023-04-13T00:36:09.950Z,4.00
2023-04-13T00:38:37.917Z,5.25
2023-04-13T00:41:05.725Z,4.75
2023-04-13T00:43:33.771Z,6.00
2023-04-13T00:46:01.356Z,6.00
2023-04-13T00:48:35.181Z,4.00
2023-04-13T00:51:03.926Z,5.00
2023-04-13T00:53:32.017Z,5.75
2023-04-13T00:56:00.537Z,4.00
2023-04-13T00:58:33.441Z,6.00
2023-04-13T01:01:01.009Z,5.75
2023-04-13T01:03:30.877Z,5.00
2023-04-13T01:06:21.319Z,4.50
2023-04-13T01:09:08.416Z,4.50
2023-04-13T01:11:48.695Z,4.75
2023-04-13T01:14:31.734Z,5.00
2023-04-13T01:17:04.272Z,5.75
2023-04-13T01:19:42.702Z,7.00
2023-04-13T01:22:14.487Z,4.25
2023-04-13T01:25:14.716Z,2.00
2023-04-13T01:28:17.977Z,5.00
2023-04-13T01:30:47.667Z,5.00
2023-04-13T01:33:16.285Z,5.50
2023-04-13T01:35:54.750Z,4.50
2023-04-13T01:38:27.085Z,5.25
2023-04-13T01:40:54.544Z,7.50
2023-04-13T01:43:24.243Z,6.50
2023-04-13T01:46:01.274Z,8.25
2023-04-13T01:48:36.136Z,5.25
2023-04-13T01:51:08.687Z,5.50
2023-04-13T01:53:40.345Z,5.00
2023-04-13T01:56:13.167Z,5.00
2023-04-13T01:58:43.969Z,2.00
2023-04-13T02:01:12.876Z,5.00
2023-04-13T02:04:01.874Z,5.00
2023-04-13T02:06:30.142Z,4.75
2023-04-13T02:08:57.684Z,5.00
2023-04-13T02:11:25.986Z,7.00
2023-04-13T02:13:57.668Z,5.25
2023-04-13T02:16:28.437Z,5.00
2023-04-13T02:19:00.307Z,5.50
2023-04-13T02:21:28.376Z,4.00
2023-04-13T02:23:57.526Z,7.50
2023-04-13T02:26:26.398Z,5.50
2023-04-13T02:28:53.848Z,5.00
2023-04-13T02:31:44.239Z,5.50
2023-04-13T02:34:13.080Z,6.00
2023-04-13T02:36:40.592Z,5.00
2023-04-13T02:39:08.560Z,4.75
2023-04-13T02:41:37.913Z,6.00
2023-04-13T02:44:06.415Z,5.75
2023-04-13T02:46:34.255Z,4.50
2023-04-13T02:49:06.013Z,7.75
2023-04-13T02:51:34.031Z,10.75
2023-04-13T02:54:03.424Z,6.00
2023-04-13T02:56:31.974Z,8.00
2023-04-13T02:58:59.907Z,6.50
2023-04-13T03:01:29.665Z,10.75
2023-04-13T03:03:58.587Z,7.50
2023-04-13T03:06:26.108Z,8.25
2023-04-13T03:08:53.925Z,12.00
2023-04-13T03:11:26.387Z,11.75
2023-04-13T03:13:54.298Z,9.50
2023-04-13T03:16:21.844Z,9.50
2023-04-13T03:18:56.226Z,5.75
2023-04-13T03:21:23.781Z,10.25
2023-04-13T03:23:51.337Z,7.75
2023-04-13T03:26:20.234Z,12.75
2023-04-13T03:28:47.828Z,7.75
2023-04-13T03:31:16.080Z,11.75
2023-04-13T03:33:44.511Z,11.25
2023-04-13T03:36:12.454Z,9.50
2023-04-13T03:38:42.736Z,12.50
2023-04-13T03:41:10.558Z,8.75
2023-04-13T03:43:38.199Z,8.00
2023-04-13T03:46:07.999Z,12.00
2023-04-13T03:48:36.041Z,9.25
2023-04-13T03:51:03.572Z,6.25
2023-04-13T03:53:31.528Z,7.25
2023-04-13T03:55:59.137Z,9.75
2023-04-13T03:58:27.401Z,10.50
2023-04-13T04:00:55.899Z,8.25
2023-04-13T04:03:25.900Z,10.00
2023-04-13T04:05:53.657Z,9.50
2023-04-13T04:08:21.258Z,9.75
2023-04-13T04:10:48.937Z,12.00
2023-04-13T04:13:17.225Z,10.25
2023-04-13T04:15:46.562Z,11.00
2023-04-13T04:18:14.055Z,10.25
2023-04-13T04:20:41.754Z,9.00
2023-04-13T04:23:11.224Z,8.75
2023-04-13T04:25:40.652Z,12.00
2023-04-13T04:28:08.746Z,9.50
2023-04-13T04:30:36.174Z,10.25
2023-04-13T04:33:04.873Z,10.50
2023-04-13T04:35:35.809Z,10.00
2023-04-13T04:38:04.510Z,10.50
2023-04-13T04:40:36.165Z,9.50
2023-04-13T04:43:05.029Z,11.50
2023-04-13T04:45:33.268Z,9.50
2023-04-13T04:48:03.354Z,5.00
2023-04-13T04:50:30.973Z,8.50
2023-04-13T04:52:58.393Z,3.00
2023-04-13T04:55:25.856Z,7.00
2023-04-13T04:57:53.439Z,6.00
2023-04-13T05:00:22.000Z,8.00
2023-04-13T05:02:51.334Z,6.00
2023-04-13T05:05:19.279Z,6.25
2023-04-13T05:07:46.853Z,10.50
2023-04-13T05:10:14.703Z,9.75
2023-04-13T05:12:42.799Z,7.00
2023-04-13T05:15:10.591Z,10.50
2023-04-13T05:17:38.754Z,10.00
2023-04-13T05:20:07.348Z,8.50
2023-04-13T05:22:34.908Z,8.00
2023-04-13T05:25:02.260Z,8.50
2023-04-13T05:27:30.066Z,7.00
2023-04-13T05:29:57.429Z,9.50
2023-04-13T05:32:25.011Z,7.25
2023-04-13T05:34:52.787Z,8.50
2023-04-13T05:37:21.562Z,8.50
2023-04-13T05:39:50.184Z,10.25
2023-04-13T05:42:17.628Z,7.00
2023-04-13T05:44:44.998Z,7.00
2023-04-13T05:47:12.796Z,6.50
2023-04-13T05:49:40.445Z,5.75
2023-04-13T05:52:10.630Z,5.50
2023-04-13T05:54:38.251Z,5.00
2023-04-13T05:57:10.165Z,5.00
2023-04-13T05:59:38.531Z,6.50
2023-04-13T06:02:06.299Z,7.00
2023-04-13T06:04:35.156Z,6.00
2023-04-13T06:07:03.133Z,7.00
2023-04-13T06:09:31.152Z,5.25
2023-04-13T06:11:58.564Z,7.50
2023-04-13T06:14:26.365Z,6.00
2023-04-13T06:16:54.360Z,4.00
2023-04-13T06:19:21.974Z,6.75
2023-04-13T06:21:49.465Z,6.75
2023-04-13T06:24:17.660Z,8.00
2023-04-13T06:26:45.162Z,8.00
2023-04-13T06:29:14.221Z,7.00
2023-04-13T06:31:42.131Z,6.50
2023-04-13T06:34:09.701Z,9.00
2023-04-13T06:36:40.677Z,10.00
2023-04-13T06:39:09.494Z,7.67
2023-04-13T06:41:38.009Z,6.33
2023-04-13T06:44:05.727Z,7.00
2023-04-13T06:46:33.638Z,5.67
2023-04-13T06:49:02.897Z,8.00
2023-04-13T06:51:30.760Z,8.00
2023-04-13T06:53:58.125Z,5.00
2023-04-13T06:56:26.134Z,6.33
2023-04-13T06:59:00.820Z,8.33
2023-04-13T07:01:29.898Z,10.00
2023-04-13T07:04:02.626Z,6.00
2023-04-13T07:06:32.224Z,7.00
2023-04-13T07:09:00.007Z,5.00
2023-04-13T07:11:28.483Z,3.00
2023-04-13T07:13:57.466Z,4.00
2023-04-13T07:16:25.001Z,3.75
2023-04-13T07:18:52.483Z,4.00
2023-04-13T07:21:20.422Z,4.00
2023-04-13T07:23:47.897Z,4.00
2023-04-13T07:26:16.315Z,4.67
2023-04-13T07:28:43.959Z,5.25
2023-04-13T07:31:12.197Z,6.00
2023-04-13T07:33:39.704Z,4.25
2023-04-13T07:36:24.253Z,3.75
2023-04-13T07:38:52.553Z,3.00
2023-04-13T07:41:22.698Z,9.00
2023-04-13T07:43:51.267Z,23.33
2023-04-13T07:46:26.439Z,5.00
2023-04-13T07:48:54.325Z,5.50
2023-04-13T07:51:23.374Z,5.00
2023-04-13T07:53:52.732Z,4.50
2023-04-13T07:56:20.304Z,4.50
2023-04-13T07:58:51.036Z,2.25
2023-04-13T08:01:18.877Z,3.75
2023-04-13T08:03:46.402Z,4.00
2023-04-13T08:06:14.095Z,4.25
2023-04-13T08:08:42.002Z,5.50
2023-04-13T08:11:10.141Z,4.00
2023-04-13T08:13:41.099Z,2.25
2023-04-13T08:16:09.647Z,17.00
2023-04-13T08:18:38.550Z,1.75
2023-04-13T08:21:12.590Z,3.00
2023-04-13T08:23:43.208Z,3.50
2023-04-13T08:26:20.671Z,4.00
2023-04-13T08:28:49.212Z,5.00
2023-04-13T08:31:17.448Z,3.00
2023-04-13T08:33:47.030Z,2.25
2023-04-13T08:36:14.402Z,3.50
2023-04-13T08:38:41.998Z,4.00
2023-04-13T08:41:10.629Z,2.00
2023-04-13T08:43:39.332Z,5.50
2023-04-13T08:46:19.613Z,7.33
2023-04-13T08:48:59.075Z,4.67
2023-04-13T08:51:28.831Z,4.75
2023-04-13T08:53:59.337Z,4.33
2023-04-13T08:56:42.145Z,5.00
2023-04-13T08:59:15.497Z,0.67
2023-04-13T09:01:46.479Z,7.00
2023-04-13T09:04:20.225Z,7.00
2023-04-13T09:06:51.166Z,6.33
2023-04-13T09:09:20.683Z,6.67
2023-04-13T09:11:52.114Z,5.67
2023-04-13T09:14:23.095Z,4.67
2023-04-13T09:16:50.942Z,4.33
2023-04-13T09:19:30.436Z,7.00
2023-04-13T09:21:58.615Z,7.00
2023-04-13T09:24:26.130Z,3.33
2023-04-13T09:26:55.897Z,5.00
2023-04-13T09:29:24.847Z,6.67
2023-04-13T09:31:52.408Z,9.00
2023-04-13T09:34:29.658Z,6.75
2023-04-13T09:37:00.968Z,8.67
2023-04-13T09:39:29.504Z,10.00
2023-04-13T09:41:58.390Z,8.00
2023-04-13T09:44:33.198Z,7.50
2023-04-13T09:47:03.110Z,6.67
2023-04-13T09:49:41.142Z,8.00
2023-04-13T09:52:25.256Z,8.00
2023-04-13T09:54:58.866Z,11.25
2023-04-13T09:57:30.553Z,9.00
2023-04-13T10:00:07.189Z,9.75
2023-04-13T10:02:39.657Z,12.00
2023-04-13T10:05:09.791Z,8.67
2023-04-13T10:07:38.251Z,8.33
2023-04-13T10:10:06.794Z,8.00
2023-04-13T10:12:39.134Z,9.00
2023-04-13T10:15:35.721Z,10.33
2023-04-13T10:18:25.037Z,9.33
2023-04-13T10:20:54.100Z,8.00
2023-04-13T10:23:22.037Z,10.67
2023-04-13T10:25:51.637Z,11.00
2023-04-13T10:28:20.702Z,11.00
2023-04-13T10:30:54.093Z,7.25
2023-04-13T10:33:23.066Z,9.00
2023-04-13T10:35:58.897Z,9.00
2023-04-13T10:38:30.093Z,8.00
2023-04-13T10:40:58.746Z,9.00
2023-04-13T10:43:30.996Z,10.67
2023-04-13T10:46:13.882Z,10.33
2023-04-13T10:48:42.375Z,7.75
2023-04-13T10:51:13.235Z,11.50
2023-04-13T10:53:41.177Z,5.25
2023-04-13T10:56:19.283Z,8.33
2023-04-13T10:58:54.270Z,10.00
2023-04-13T11:01:22.754Z,8.75
2023-04-13T11:04:03.958Z,6.75
2023-04-13T11:06:37.939Z,8.00
2023-04-13T11:09:07.256Z,8.00
2023-04-13T11:11:37.365Z,8.00
2023-04-13T11:14:05.102Z,6.00
2023-04-13T11:16:46.210Z,7.67
2023-04-13T11:19:13.709Z,7.25
2023-04-13T11:21:44.836Z,8.00
2023-04-13T11:24:12.581Z,8.50
2023-04-13T11:26:41.658Z,7.50
2023-04-13T11:29:19.162Z,7.75
2023-04-13T11:31:47.218Z,11.00
2023-04-13T11:34:25.861Z,12.67
2023-04-13T11:37:05.240Z,11.50
2023-04-13T11:39:36.330Z,8.67
2023-04-13T11:42:06.134Z,11.00
2023-04-13T11:44:37.646Z,10.67
2023-04-13T11:47:06.607Z,12.00
2023-04-13T11:49:41.305Z,9.67
2023-04-13T11:52:08.898Z,12.67
2023-04-13T11:54:36.436Z,13.33
2023-04-13T11:57:04.047Z,8.33
2023-04-13T11:59:36.428Z,9.67
2023-04-13T12:02:10.632Z,14.00
2023-04-13T12:04:49.234Z,12.33
2023-04-13T12:07:18.351Z,12.00
2023-04-13T12:15:13.760Z,13.67
2023-04-13T12:17:58.156Z,16.00
2023-04-13T12:20:39.901Z,16.00
2023-04-13T12:23:24.785Z,14.00
2023-04-13T12:26:00.081Z,12.75
2023-04-13T12:28:33.654Z,12.25
2023-04-13T12:31:10.117Z,16.00
2023-04-13T12:33:40.470Z,15.00
2023-04-13T12:36:11.417Z,14.75
2023-04-13T12:38:40.193Z,15.75
2023-04-13T12:41:11.034Z,16.67
2023-04-13T12:43:38.542Z,20.00
2023-04-13T12:46:06.074Z,22.00
2023-04-13T12:48:33.460Z,15.75
2023-04-13T12:51:03.293Z,17.00
2023-04-13T12:53:31.166Z,15.75
2023-04-13T12:55:58.517Z,6.75
2023-04-13T12:58:26.680Z,12.00
2023-04-13T13:00:54.334Z,17.50
2023-04-13T13:03:38.581Z,11.75
2023-04-13T13:06:08.258Z,17.75
2023-04-13T13:08:38.430Z,17.50
2023-04-13T13:11:08.510Z,18.25
2023-04-13T13:13:37.787Z,15.00
2023-04-13T13:16:05.591Z,10.00
2023-04-13T13:18:50.277Z,15.25
2023-04-13T13:21:19.547Z,12.75
2023-04-13T13:23:47.027Z,16.50
2023-04-13T13:28:46.285Z,17.75
2023-04-13T13:31:13.672Z,13.25
2023-04-13T13:33:42.838Z,8.75
2023-04-13T13:36:10.990Z,13.00
2023-04-13T13:38:38.372Z,12.50
2023-04-13T13:41:06.642Z,17.25
2023-04-13T13:43:34.116Z,17.50
2023-04-13T13:46:05.966Z,11.50
2023-04-13T13:48:33.922Z,12.75
2023-04-13T13:51:02.135Z,13.50
2023-04-13T13:53:31.894Z,13.00
2023-04-13T13:55:59.353Z,10.00
2023-04-13T13:58:27.547Z,12.00
2023-04-13T14:00:56.040Z,11.50
2023-04-13T14:03:25.287Z,12.50
2023-04-13T14:05:52.933Z,11.75
2023-04-13T14:08:20.845Z,10.25
2023-04-13T14:10:50.004Z,10.50
2023-04-13T14:13:17.818Z,12.00
2023-04-13T14:15:47.442Z,10.50
2023-04-13T14:18:17.073Z,10.25
2023-04-13T14:20:44.618Z,10.25
2023-04-13T14:23:12.359Z,11.25
2023-04-13T14:25:41.377Z,10.75
2023-04-13T14:28:11.302Z,14.00
2023-04-13T14:30:41.813Z,12.25
2023-04-13T14:33:13.690Z,12.50
2023-04-13T14:35:41.628Z,12.50
2023-04-13T14:38:09.817Z,11.25
2023-04-13T14:40:37.423Z,13.25
2023-04-13T14:43:04.952Z,13.00
2023-04-13T14:45:32.849Z,13.75
2023-04-13T14:48:00.308Z,16.00
2023-04-13T14:50:29.060Z,14.25
2023-04-13T14:52:56.648Z,21.00
2023-04-13T14:55:24.448Z,19.50
2023-04-13T14:57:52.036Z,20.25
2023-04-13T15:00:26.398Z,17.50
2023-04-13T15:03:14.125Z,22.00
2023-04-13T15:05:47.499Z,23.00
2023-04-13T15:08:19.744Z,22.33
2023-04-13T15:10:47.200Z,20.00
2023-04-13T15:13:18.675Z,22.00
2023-04-13T15:15:48.331Z,32.75
2023-04-13T15:18:15.942Z,25.00
2023-04-13T15:20:43.694Z,24.67
2023-04-13T15:23:12.067Z,24.75
2023-04-13T15:25:41.641Z,27.00
2023-04-13T15:28:10.601Z,24.75
2023-04-13T15:30:38.998Z,26.50
2023-04-13T15:33:06.826Z,21.33
2023-04-13T15:35:35.656Z,17.33
2023-04-13T15:38:04.461Z,32.00
2023-04-13T15:40:33.981Z,22.67
2023-04-13T15:43:03.281Z,21.00
2023-04-13T15:45:31.409Z,23.00
2023-04-13T15:47:59.952Z,30.00
2023-04-13T15:50:28.211Z,28.00
2023-04-13T15:52:57.183Z,22.67
2023-04-13T15:55:25.359Z,22.33
2023-04-13T15:57:53.970Z,20.33
2023-04-13T16:00:22.178Z,20.00
2023-04-13T16:02:50.433Z,23.00
2023-04-13T16:05:18.868Z,14.00
2023-04-13T16:07:52.732Z,9.25
2023-04-13T16:10:20.890Z,16.75
2023-04-13T16:12:50.382Z,13.50
2023-04-13T16:15:19.476Z,14.75
2023-04-13T16:17:56.935Z,13.75
2023-04-13T16:20:28.515Z,16.00
2023-04-13T16:22:59.461Z,13.00
2023-04-13T16:25:27.486Z,13.75
2023-04-13T16:27:55.652Z,12.75
2023-04-13T16:30:23.785Z,13.50
2023-04-13T16:32:52.244Z,9.25
2023-04-13T16:35:19.763Z,14.00
2023-04-13T16:37:47.137Z,15.00
2023-04-13T16:40:19.554Z,11.50
2023-04-13T16:42:48.862Z,12.25
2023-04-13T16:45:16.301Z,13.33
2023-04-13T16:47:44.245Z,9.75
2023-04-13T16:50:12.720Z,15.67
2023-04-13T16:52:40.701Z,23.00
2023-04-13T16:55:19.478Z,25.50
2023-04-13T16:57:47.256Z,24.25
2023-04-13T17:00:18.278Z,20.00
2023-04-13T17:02:47.920Z,19.25
2023-04-13T17:05:16.240Z,16.33
2023-04-13T17:07:47.607Z,13.00
2023-04-13T17:10:18.550Z,18.67
2023-04-13T17:12:48.253Z,16.00
2023-04-13T17:15:18.499Z,16.00
2023-04-13T17:17:47.248Z,18.33
2023-04-13T17:20:17.049Z,17.67
2023-04-13T17:22:46.181Z,20.00
2023-04-13T17:25:16.490Z,19.00
2023-04-13T17:27:44.313Z,15.33
2023-04-13T17:30:13.602Z,17.00
2023-04-13T17:32:57.751Z,17.33
2023-04-13T17:35:27.256Z,46.75
2023-04-13T17:37:54.615Z,43.00
2023-04-13T17:40:25.757Z,39.00
2023-04-13T17:42:53.198Z,34.00
2023-04-13T17:45:20.843Z,13.33
2023-04-13T17:47:49.484Z,10.67
2023-04-13T17:50:17.420Z,11.33
2023-04-13T17:52:44.956Z,22.25
2023-04-13T17:55:16.385Z,24.50
2023-04-13T17:57:45.111Z,26.00
2023-04-13T18:00:13.259Z,16.67
2023-04-13T18:02:58.530Z,17.00
2023-04-13T18:05:27.819Z,18.00
2023-04-13T18:07:55.347Z,17.00
2023-04-13T18:10:22.778Z,14.67
2023-04-13T18:12:53.748Z,10.67
2023-04-13T18:15:21.261Z,13.67
2023-04-13T18:17:48.759Z,13.00
2023-04-13T18:20:16.227Z,12.33
2023-04-13T18:22:43.627Z,13.33
2023-04-13T18:25:11.412Z,15.00
2023-04-13T18:27:38.892Z,16.00
2023-04-13T18:30:08.772Z,16.67
2023-04-13T18:32:38.209Z,15.33
2023-04-13T18:35:06.321Z,16.00
2023-04-13T18:37:39.442Z,13.67
2023-04-13T18:40:08.529Z,15.67
2023-04-13T18:42:38.414Z,17.67
2023-04-13T18:45:06.944Z,19.00
2023-04-13T18:47:35.362Z,21.50
2023-04-13T18:50:03.054Z,22.50
2023-04-13T18:52:31.124Z,26.00
2023-04-13T18:54:59.101Z,19.00
2023-04-13T18:57:30.217Z,15.00
2023-04-13T18:59:58.846Z,21.75
2023-04-13T19:02:26.391Z,22.75
2023-04-13T19:04:54.251Z,18.25
2023-04-13T19:07:21.794Z,21.25
2023-04-13T19:09:49.774Z,14.00
2023-04-13T19:12:17.294Z,18.00
2023-04-13T19:14:48.775Z,18.25
2023-04-13T19:17:21.058Z,20.25
2023-04-13T19:19:49.147Z,19.50
2023-04-13T19:22:16.612Z,17.50
2023-04-13T19:24:46.413Z,17.00
2023-04-13T19:27:14.152Z,19.00
2023-04-13T19:29:41.760Z,17.75
2023-04-13T19:32:11.815Z,22.00
2023-04-13T19:34:39.841Z,22.75
2023-04-13T19:37:07.317Z,23.75
2023-04-13T19:39:35.198Z,15.00
2023-04-13T19:42:02.724Z,23.25
2023-04-13T19:44:30.524Z,22.50
2023-04-13T19:47:02.017Z,22.50
2023-04-13T19:49:29.866Z,23.00
2023-04-13T19:51:57.273Z,22.25
2023-04-13T19:54:29.172Z,23.50
2023-04-13T19:56:56.753Z,23.00
2023-04-13T19:59:24.142Z,17.00
2023-04-13T20:01:52.185Z,22.00
2023-04-13T20:04:20.709Z,20.00
2023-04-13T20:06:48.138Z,21.50
2023-04-13T20:09:15.726Z,23.75
2023-04-13T20:11:52.626Z,24.25
2023-04-13T20:14:21.148Z,17.50
2023-04-13T20:16:48.735Z,25.25
2023-04-13T20:19:16.387Z,24.50
2023-04-13T20:21:46.790Z,26.75
2023-04-13T20:24:14.355Z,28.50
2023-04-13T20:26:43.659Z,25.00
2023-04-13T20:29:11.330Z,28.00
2023-04-13T20:31:39.075Z,27.00
2023-04-13T20:34:09.778Z,27.00
2023-04-13T20:36:37.399Z,27.50
2023-04-13T20:39:09.580Z,28.00
2023-04-13T20:41:39.001Z,27.25
2023-04-13T20:44:09.969Z,29.00
2023-04-13T20:46:42.009Z,27.25
2023-04-13T20:49:11.949Z,29.75
2023-04-13T20:51:39.805Z,26.00
2023-04-13T20:54:07.478Z,28.00
2023-04-13T20:56:38.451Z,25.00
2023-04-13T20:59:07.567Z,27.00
2023-04-13T21:01:35.533Z,27.75
2023-04-13T21:04:03.851Z,26.75
2023-04-13T21:06:31.983Z,24.50
2023-04-13T21:08:59.572Z,24.00
2023-04-13T21:11:27.521Z,22.00
2023-04-13T21:13:55.006Z,23.75
2023-04-13T21:16:25.840Z,25.00
2023-04-13T21:18:54.462Z,27.00
2023-04-13T21:21:23.468Z,23.25
2023-04-13T21:23:51.295Z,26.50
2023-04-13T21:26:18.889Z,26.00
2023-04-13T21:28:47.842Z,26.00
2023-04-13T21:31:15.645Z,26.25
2023-04-13T21:33:43.238Z,23.00
2023-04-13T21:38:41.956Z,25.00
2023-04-13T21:41:16.029Z,24.00
2023-04-13T21:43:43.926Z,23.50
2023-04-13T21:46:13.776Z,24.25
2023-04-13T21:48:41.937Z,21.75
2023-04-13T21:51:09.895Z,21.25
2023-04-13T21:53:39.064Z,24.25
2023-04-13T21:56:07.056Z,24.50
2023-04-13T21:58:39.573Z,25.00
2023-04-13T22:01:07.455Z,26.25
2023-04-13T22:03:37.540Z,19.75
2023-04-13T22:06:07.140Z,23.75
2023-04-13T22:08:36.169Z,23.50
2023-04-13T22:11:04.087Z,20.00
2023-04-13T22:13:32.200Z,21.50
2023-04-13T22:16:02.732Z,22.50
2023-04-13T22:18:30.314Z,21.75
2023-04-13T22:20:59.863Z,18.50
2023-04-13T22:23:29.546Z,18.25
2023-04-13T22:26:03.891Z,17.25
2023-04-13T22:28:32.059Z,15.50
2023-04-13T22:31:06.996Z,15.00
2023-04-13T22:33:40.424Z,14.33
2023-04-13T22:36:17.666Z,11.00
2023-04-13T22:38:48.992Z,14.33
2023-04-13T22:41:17.661Z,9.00
2023-04-13T22:43:45.068Z,11.00
2023-04-13T22:46:12.506Z,12.33
2023-04-13T22:48:40.918Z,12.00
2023-04-13T22:51:08.519Z,13.00
2023-04-13T22:53:36.034Z,14.00
2023-04-13T22:56:05.637Z,11.00
2023-04-13T22:58:33.099Z,12.67
2023-04-13T23:01:01.468Z,13.33
2023-04-13T23:03:30.239Z,13.67
2023-04-13T23:05:59.002Z,8.33
2023-04-13T23:08:26.394Z,9.00
2023-04-13T23:10:56.285Z,6.00
2023-04-13T23:13:24.371Z,6.00
2023-04-13T23:15:59.446Z,6.33
2023-04-13T23:18:28.135Z,7.25
2023-04-13T23:20:56.027Z,8.25
2023-04-13T23:23:23.806Z,6.00
2023-04-13T23:25:51.525Z,7.67
2023-04-13T23:28:19.369Z,10.33
2023-04-13T23:30:50.640Z,11.00
2023-04-13T23:33:18.398Z,8.67
2023-04-13T23:35:52.453Z,12.67
2023-04-13T23:38:22.235Z,10.00
2023-04-13T23:40:50.304Z,10.33
2023-04-13T23:43:17.644Z,10.00
2023-04-13T23:45:45.054Z,7.00
2023-04-13T23:48:12.874Z,2.00
2023-04-13T23:50:40.281Z,7.25
2023-04-13T23:53:08.022Z,8.00
2023-04-13T23:55:35.542Z,8.00
2023-04-13T23:58:13.018Z,7.00
